VJC976 VVTS-VVPQ
Flight info
| Callsign | VJC976 |
|---|---|
| Flight time | 0h 35m |
| Altitude | 22000 |
| Route | BACHU5A BACHU W17 TUNPO TUNPO2C |
| Aircraft | A21N/M-SDE3FGHIRWY/LB1 |
Departure
| Time | 2026-04-16 09:30 |
|---|---|
| Airport | Tan Son Nhat International Airport (VVTS) |
Arrival
| Time | 2026-04-16 10:05 |
|---|---|
| Airport | Phú Quốc International Airport (VVPQ) |
| Time | Latitude | Longitude | Altitude | Speed | Heading |
|---|---|---|---|---|---|
| 2026-04-16 09:11 | 10.81260 | 106.66116 | 35 ft | 0 kts | 95° |
| 2026-04-16 09:19 | 10.81261 | 106.66106 | 35 ft | 2 kts | 95° |
| 2026-04-16 09:19 | 10.81263 | 106.66092 | 35 ft | 1 kts | 95° |
| 2026-04-16 09:20 | 10.81263 | 106.66082 | 34 ft | 2 kts | 92° |
| 2026-04-16 09:20 | 10.81262 | 106.66067 | 34 ft | 2 kts | 77° |
| 2026-04-16 09:20 | 10.81258 | 106.66052 | 34 ft | 2 kts | 66° |
| 2026-04-16 09:20 | 10.81251 | 106.66039 | 34 ft | 2 kts | 54° |
| 2026-04-16 09:21 | 10.81241 | 106.66027 | 34 ft | 2 kts | 43° |
| 2026-04-16 09:21 | 10.81229 | 106.66017 | 34 ft | 2 kts | 31° |
| 2026-04-16 09:21 | 10.81216 | 106.66010 | 34 ft | 2 kts | 20° |
| 2026-04-16 09:21 | 10.81201 | 106.66007 | 34 ft | 1 kts | 8° |
| 2026-04-16 09:22 | 10.81194 | 106.66006 | 34 ft | 1 kts | 4° |
| 2026-04-16 09:22 | 10.81193 | 106.66006 | 34 ft | 0 kts | 5° |
| 2026-04-16 09:25 | 10.81203 | 106.66007 | 34 ft | 3 kts | 5° |
| 2026-04-16 09:25 | 10.81242 | 106.66012 | 34 ft | 7 kts | 9° |
| 2026-04-16 09:25 | 10.81305 | 106.66019 | 33 ft | 10 kts | 6° |
| 2026-04-16 09:26 | 10.81390 | 106.66029 | 31 ft | 13 kts | 6° |
| 2026-04-16 09:26 | 10.81495 | 106.66041 | 29 ft | 16 kts | 7° |
| 2026-04-16 09:26 | 10.81610 | 106.66052 | 30 ft | 16 kts | 359° |
| 2026-04-16 09:26 | 10.81735 | 106.66058 | 29 ft | 18 kts | 6° |
| 2026-04-16 09:27 | 10.81861 | 106.66084 | 29 ft | 18 kts | 43° |
| 2026-04-16 09:27 | 10.81911 | 106.66203 | 29 ft | 18 kts | 70° |
| 2026-04-16 09:27 | 10.81958 | 106.66327 | 29 ft | 19 kts | 69° |
| 2026-04-16 09:27 | 10.82006 | 106.66455 | 29 ft | 19 kts | 69° |
| 2026-04-16 09:28 | 10.82054 | 106.66582 | 30 ft | 19 kts | 69° |
| 2026-04-16 09:28 | 10.82101 | 106.66706 | 31 ft | 18 kts | 69° |
| 2026-04-16 09:28 | 10.82146 | 106.66827 | 32 ft | 18 kts | 70° |
| 2026-04-16 09:28 | 10.82191 | 106.66946 | 34 ft | 17 kts | 69° |
| 2026-04-16 09:29 | 10.82273 | 106.67002 | 35 ft | 16 kts | 341° |
| 2026-04-16 09:29 | 10.82358 | 106.66928 | 34 ft | 14 kts | 289° |
| 2026-04-16 09:29 | 10.82322 | 106.66814 | 32 ft | 30 kts | 249° |
| 2026-04-16 09:29 | 10.82150 | 106.66360 | 32 ft | 104 kts | 248° |
| 2026-04-16 09:30 | 10.81809 | 106.65460 | 30 ft | 164 kts | 250° |
| 2026-04-16 09:30 | 10.81388 | 106.64300 | 424 ft | 178 kts | 244° |
| 2026-04-16 09:30 | 10.80943 | 106.63122 | 1069 ft | 182 kts | 244° |
| 2026-04-16 09:30 | 10.80483 | 106.61943 | 1770 ft | 181 kts | 246° |
| 2026-04-16 09:31 | 10.80017 | 106.60743 | 2162 ft | 188 kts | 246° |
| 2026-04-16 09:31 | 10.79522 | 106.59460 | 2438 ft | 203 kts | 247° |
| 2026-04-16 09:31 | 10.78998 | 106.58083 | 2762 ft | 216 kts | 246° |
| 2026-04-16 09:31 | 10.78429 | 106.56593 | 3037 ft | 233 kts | 247° |
| 2026-04-16 09:32 | 10.77812 | 106.54974 | 3290 ft | 254 kts | 247° |
| 2026-04-16 09:32 | 10.77150 | 106.53243 | 3677 ft | 270 kts | 248° |
| 2026-04-16 09:32 | 10.76471 | 106.51450 | 4290 ft | 275 kts | 247° |
| 2026-04-16 09:32 | 10.75787 | 106.49643 | 4975 ft | 278 kts | 248° |
| 2026-04-16 09:33 | 10.75089 | 106.47811 | 5695 ft | 280 kts | 249° |
| 2026-04-16 09:33 | 10.74377 | 106.45940 | 6394 ft | 284 kts | 249° |
| 2026-04-16 09:33 | 10.73668 | 106.44070 | 7095 ft | 287 kts | 250° |
| 2026-04-16 09:33 | 10.72951 | 106.42172 | 7771 ft | 291 kts | 250° |
| 2026-04-16 09:34 | 10.72228 | 106.40262 | 8432 ft | 295 kts | 250° |
| 2026-04-16 09:34 | 10.71482 | 106.38296 | 9101 ft | 298 kts | 249° |
| 2026-04-16 09:34 | 10.70743 | 106.36349 | 9760 ft | 300 kts | 249° |
| 2026-04-16 09:34 | 10.69980 | 106.34345 | 10353 ft | 306 kts | 249° |
| 2026-04-16 09:35 | 10.69196 | 106.32281 | 10662 ft | 321 kts | 249° |
| 2026-04-16 09:35 | 10.68402 | 106.30116 | 11007 ft | 334 kts | 251° |
| 2026-04-16 09:35 | 10.67633 | 106.27865 | 11555 ft | 339 kts | 251° |
| 2026-04-16 09:35 | 10.66864 | 106.25589 | 12170 ft | 342 kts | 251° |
| 2026-04-16 09:36 | 10.66085 | 106.23286 | 12746 ft | 345 kts | 251° |
| 2026-04-16 09:36 | 10.65305 | 106.20986 | 13333 ft | 347 kts | 251° |
| 2026-04-16 09:36 | 10.64514 | 106.18653 | 13909 ft | 350 kts | 251° |
| 2026-04-16 09:36 | 10.63721 | 106.16315 | 14448 ft | 353 kts | 251° |
| 2026-04-16 09:37 | 10.62921 | 106.13954 | 14980 ft | 356 kts | 250° |
| 2026-04-16 09:37 | 10.62112 | 106.11573 | 15510 ft | 358 kts | 250° |
| 2026-04-16 09:37 | 10.61298 | 106.09177 | 16025 ft | 360 kts | 250° |
| 2026-04-16 09:37 | 10.60476 | 106.06761 | 16538 ft | 362 kts | 250° |
| 2026-04-16 09:38 | 10.59655 | 106.04345 | 17007 ft | 365 kts | 250° |
| 2026-04-16 09:38 | 10.58820 | 106.01893 | 17485 ft | 367 kts | 250° |
| 2026-04-16 09:38 | 10.57972 | 105.99443 | 17959 ft | 369 kts | 249° |
| 2026-04-16 09:38 | 10.57085 | 105.97004 | 18421 ft | 370 kts | 248° |
| 2026-04-16 09:39 | 10.56172 | 105.94527 | 18873 ft | 373 kts | 248° |
| 2026-04-16 09:39 | 10.55262 | 105.92060 | 19317 ft | 375 kts | 248° |
| 2026-04-16 09:39 | 10.54339 | 105.89553 | 19761 ft | 377 kts | 248° |
| 2026-04-16 09:39 | 10.53429 | 105.87073 | 20201 ft | 378 kts | 248° |
| 2026-04-16 09:40 | 10.52505 | 105.84551 | 20628 ft | 380 kts | 248° |
| 2026-04-16 09:40 | 10.51577 | 105.82019 | 21048 ft | 382 kts | 249° |
| 2026-04-16 09:40 | 10.50650 | 105.79491 | 21460 ft | 384 kts | 249° |
| 2026-04-16 09:40 | 10.49717 | 105.76943 | 21754 ft | 386 kts | 249° |
| 2026-04-16 09:41 | 10.48785 | 105.74399 | 21789 ft | 386 kts | 249° |
| 2026-04-16 09:41 | 10.47856 | 105.71863 | 21793 ft | 385 kts | 249° |
| 2026-04-16 09:41 | 10.46909 | 105.69282 | 21795 ft | 385 kts | 249° |
| 2026-04-16 09:41 | 10.45978 | 105.66742 | 21796 ft | 385 kts | 249° |
| 2026-04-16 09:42 | 10.45049 | 105.64208 | 21796 ft | 385 kts | 249° |
| 2026-04-16 09:42 | 10.44112 | 105.61652 | 21796 ft | 385 kts | 249° |
| 2026-04-16 09:42 | 10.43170 | 105.59090 | 21796 ft | 385 kts | 249° |
| 2026-04-16 09:42 | 10.42238 | 105.56552 | 21796 ft | 385 kts | 249° |
| 2026-04-16 09:43 | 10.41304 | 105.54005 | 21796 ft | 385 kts | 249° |
| 2026-04-16 09:43 | 10.40358 | 105.51430 | 21797 ft | 385 kts | 249° |
| 2026-04-16 09:43 | 10.39421 | 105.48883 | 21796 ft | 385 kts | 249° |
| 2026-04-16 09:43 | 10.38492 | 105.46353 | 21797 ft | 385 kts | 249° |
| 2026-04-16 09:44 | 10.37555 | 105.43803 | 21796 ft | 385 kts | 249° |
| 2026-04-16 09:44 | 10.36604 | 105.41218 | 21797 ft | 385 kts | 249° |
| 2026-04-16 09:44 | 10.35668 | 105.38675 | 21797 ft | 385 kts | 249° |
| 2026-04-16 09:44 | 10.34725 | 105.36110 | 21797 ft | 385 kts | 249° |
| 2026-04-16 09:45 | 10.33793 | 105.33579 | 21797 ft | 385 kts | 249° |
| 2026-04-16 09:45 | 10.32854 | 105.31027 | 21797 ft | 385 kts | 248° |
| 2026-04-16 09:45 | 10.31911 | 105.28464 | 21797 ft | 385 kts | 248° |
| 2026-04-16 09:45 | 10.30972 | 105.25915 | 21797 ft | 385 kts | 248° |
| 2026-04-16 09:46 | 10.30040 | 105.23386 | 21797 ft | 385 kts | 249° |
| 2026-04-16 09:46 | 10.29102 | 105.20843 | 21798 ft | 385 kts | 249° |
| 2026-04-16 09:46 | 10.28163 | 105.18294 | 21798 ft | 385 kts | 248° |
| 2026-04-16 09:46 | 10.27218 | 105.15730 | 21799 ft | 385 kts | 249° |
| 2026-04-16 09:47 | 10.26277 | 105.13174 | 21799 ft | 385 kts | 248° |
| 2026-04-16 09:47 | 10.25339 | 105.10635 | 21799 ft | 385 kts | 249° |
| 2026-04-16 09:47 | 10.24394 | 105.08076 | 21798 ft | 385 kts | 249° |
| 2026-04-16 09:47 | 10.23451 | 105.05519 | 21797 ft | 385 kts | 248° |
| 2026-04-16 09:48 | 10.22514 | 105.02979 | 21797 ft | 385 kts | 248° |
| 2026-04-16 09:48 | 10.21581 | 105.00453 | 21797 ft | 385 kts | 248° |
| 2026-04-16 09:48 | 10.20631 | 104.97881 | 21797 ft | 385 kts | 248° |
| 2026-04-16 09:48 | 10.19693 | 104.95344 | 21797 ft | 385 kts | 248° |
| 2026-04-16 09:49 | 10.18748 | 104.92788 | 21797 ft | 385 kts | 248° |
| 2026-04-16 09:49 | 10.17807 | 104.90245 | 21797 ft | 385 kts | 248° |
| 2026-04-16 09:49 | 10.16871 | 104.87714 | 21797 ft | 385 kts | 249° |
| 2026-04-16 09:49 | 10.15927 | 104.85162 | 21797 ft | 385 kts | 248° |
| 2026-04-16 09:50 | 10.14984 | 104.82612 | 21797 ft | 385 kts | 248° |
| 2026-04-16 09:50 | 10.14045 | 104.80076 | 21710 ft | 387 kts | 248° |
| 2026-04-16 09:50 | 10.13094 | 104.77509 | 21113 ft | 391 kts | 248° |
| 2026-04-16 09:50 | 10.12140 | 104.74929 | 20534 ft | 392 kts | 248° |
| 2026-04-16 09:51 | 10.11182 | 104.72341 | 20007 ft | 390 kts | 248° |
| 2026-04-16 09:51 | 10.10225 | 104.69760 | 19497 ft | 388 kts | 248° |
| 2026-04-16 09:51 | 10.09281 | 104.67213 | 19012 ft | 386 kts | 248° |
| 2026-04-16 09:51 | 10.08337 | 104.64668 | 18524 ft | 384 kts | 248° |
| 2026-04-16 09:52 | 10.07398 | 104.62136 | 18049 ft | 381 kts | 248° |
| 2026-04-16 09:52 | 10.06549 | 104.59589 | 17565 ft | 380 kts | 252° |
| 2026-04-16 09:52 | 10.05912 | 104.56995 | 17092 ft | 379 kts | 257° |
| 2026-04-16 09:52 | 10.05456 | 104.54398 | 16631 ft | 377 kts | 260° |
| 2026-04-16 09:53 | 10.05031 | 104.51753 | 16170 ft | 374 kts | 260° |
| 2026-04-16 09:53 | 10.04623 | 104.49184 | 15725 ft | 372 kts | 260° |
| 2026-04-16 09:53 | 10.04211 | 104.46613 | 15276 ft | 369 kts | 260° |
| 2026-04-16 09:53 | 10.03798 | 104.44059 | 14829 ft | 367 kts | 261° |
| 2026-04-16 09:54 | 10.03383 | 104.41502 | 14376 ft | 365 kts | 261° |
| 2026-04-16 09:54 | 10.02970 | 104.38968 | 13924 ft | 362 kts | 261° |
| 2026-04-16 09:54 | 10.02563 | 104.36475 | 13484 ft | 360 kts | 261° |
| 2026-04-16 09:54 | 10.02188 | 104.33965 | 13037 ft | 358 kts | 264° |
| 2026-04-16 09:55 | 10.02078 | 104.31435 | 12601 ft | 355 kts | 272° |
| 2026-04-16 09:55 | 10.02240 | 104.28983 | 12176 ft | 352 kts | 276° |
| 2026-04-16 09:55 | 10.02489 | 104.26511 | 11749 ft | 349 kts | 276° |
| 2026-04-16 09:55 | 10.02744 | 104.24104 | 11329 ft | 346 kts | 277° |
| 2026-04-16 09:56 | 10.03696 | 104.14910 | 9785 ft | 343 kts | 276° |
| 2026-04-16 09:56 | 10.04387 | 104.07981 | 8943 ft | 334 kts | 276° |
| 2026-04-16 09:56 | 10.04606 | 104.05661 | 8646 ft | 327 kts | 276° |
| 2026-04-16 09:56 | 10.04823 | 104.03416 | 8355 ft | 319 kts | 276° |
| 2026-04-16 09:57 | 10.05034 | 104.01263 | 8053 ft | 313 kts | 276° |
| 2026-04-16 09:57 | 10.05314 | 103.98399 | 7603 ft | 309 kts | 276° |
| 2026-04-16 09:57 | 10.05952 | 103.91876 | 6549 ft | 304 kts | 276° |
| 2026-04-16 09:57 | 10.06758 | 103.83697 | 5660 ft | 286 kts | 276° |
| 2026-04-16 09:58 | 10.08117 | 103.75975 | 4713 ft | 271 kts | 292° |
| 2026-04-16 09:58 | 10.13102 | 103.68355 | 3748 ft | 255 kts | 329° |
| 2026-04-16 09:58 | 10.14728 | 103.67920 | 3602 ft | 236 kts | 9° |
| 2026-04-16 09:58 | 10.16143 | 103.68571 | 3480 ft | 219 kts | 50° |
| 2026-04-16 09:59 | 10.16700 | 103.70147 | 3410 ft | 193 kts | 92° |
| 2026-04-16 09:59 | 10.15766 | 103.72468 | 3154 ft | 173 kts | 128° |
| 2026-04-16 09:59 | 10.14486 | 103.74449 | 2839 ft | 161 kts | 107° |
| 2026-04-16 09:59 | 10.15237 | 103.79529 | 2110 ft | 159 kts | 50° |
| 2026-04-16 10:00 | 10.16245 | 103.79981 | 2009 ft | 165 kts | 7° |
| 2026-04-16 10:00 | 10.17390 | 103.80176 | 2014 ft | 162 kts | 29° |
| 2026-04-16 10:00 | 10.18015 | 103.80999 | 1955 ft | 151 kts | 90° |
| 2026-04-16 10:01 | 10.17562 | 103.83052 | 1991 ft | 150 kts | 98° |
| 2026-04-16 10:01 | 10.17558 | 103.84108 | 1994 ft | 149 kts | 90° |
| 2026-04-16 10:01 | 10.17663 | 103.85170 | 2002 ft | 152 kts | 86° |
| 2026-04-16 10:01 | 10.17833 | 103.86224 | 1998 ft | 153 kts | 84° |
| 2026-04-16 10:02 | 10.17958 | 103.87303 | 1933 ft | 152 kts | 92° |
| 2026-04-16 10:02 | 10.17974 | 103.88359 | 1743 ft | 149 kts | 93° |
| 2026-04-16 10:02 | 10.17945 | 103.89410 | 1610 ft | 147 kts | 98° |
| 2026-04-16 10:02 | 10.17870 | 103.90430 | 1414 ft | 143 kts | 98° |
| 2026-04-16 10:03 | 10.17774 | 103.91428 | 1235 ft | 142 kts | 99° |
| 2026-04-16 10:03 | 10.17670 | 103.92436 | 1047 ft | 142 kts | 98° |
| 2026-04-16 10:03 | 10.17568 | 103.93428 | 861 ft | 142 kts | 99° |
| 2026-04-16 10:03 | 10.17465 | 103.94426 | 716 ft | 141 kts | 100° |
| 2026-04-16 10:04 | 10.17366 | 103.95410 | 538 ft | 142 kts | 97° |
| 2026-04-16 10:04 | 10.17279 | 103.96397 | 359 ft | 140 kts | 99° |
| 2026-04-16 10:04 | 10.17168 | 103.97385 | 162 ft | 139 kts | 97° |
| 2026-04-16 10:04 | 10.17080 | 103.98334 | 39 ft | 131 kts | 98° |
| 2026-04-16 10:05 | 10.17000 | 103.99139 | 32 ft | 89 kts | 97° |
| 2026-04-16 10:05 | 10.16948 | 103.99652 | 32 ft | 63 kts | 97° |
| 2026-04-16 10:05 | 10.16855 | 104.00002 | 32 ft | 38 kts | 125° |
| 2026-04-16 10:05 | 10.16695 | 104.00157 | 32 ft | 27 kts | 176° |
| 2026-04-16 10:06 | 10.16526 | 104.00143 | 32 ft | 19 kts | 185° |
| 2026-04-16 10:06 | 10.16488 | 104.00093 | 32 ft | 9 kts | 272° |